Time;durP1;ratioP1;P1;durP2;ratioP2;P2;SDS_P1;SDS_P2;PMS_P1;PMS_P2;Temp;Humidity;BMP_temperature;BMP_pressure;BME280_temperature;BME280_humidity;BME280_pressure;Samples;Min_cycle;Max_cycle;Signal;HPM_P1;HPM_P2
2022/08/27 00:00:00;;;;;;;4.68;2.00;;;14.50;99.90;;;13.83;100.00;101389.69;5124281;23;20009;-77
2022/08/27 00:02:02;;;;;;;8.75;2.58;;;14.40;99.90;;;13.74;100.00;101380.03;5098540;23;20346;-77
2022/08/27 00:04:03;;;;;;;5.40;2.22;;;14.40;99.90;;;13.71;100.00;101377.72;5124109;23;20016;-77
2022/08/27 00:06:04;;;;;;;7.20;2.70;;;14.40;99.90;;;13.80;100.00;101392.66;5124290;23;20076;-76
2022/08/27 00:08:07;;;;;;;8.50;2.30;;;14.40;99.90;;;13.83;100.00;101392.34;5123985;23;20000;-77
2022/08/27 00:10:12;;;;;;;7.47;2.03;;;14.40;99.90;;;13.75;100.00;101381.72;5098335;23;20010;-77
2022/08/27 00:12:13;;;;;;;7.63;2.67;;;14.40;99.90;;;13.82;100.00;101385.41;5098319;23;20032;-77
2022/08/27 00:14:15;;;;;;;10.32;2.95;;;14.40;99.90;;;13.72;100.00;101377.56;5124278;23;20009;-77
2022/08/27 00:16:17;;;;;;;11.50;2.47;;;14.40;99.90;;;13.71;100.00;101367.94;5124167;23;20005;-77
2022/08/27 00:18:19;;;;;;;9.27;2.42;;;14.40;99.90;;;13.66;100.00;101359.66;5073543;23;20029;-77
2022/08/27 00:20:24;;;;;;;8.15;2.75;;;14.40;99.90;;;13.66;100.00;101358.81;5098122;23;20006;-77
2022/08/27 00:22:25;;;;;;;7.60;3.03;;;14.40;99.90;;;13.59;100.00;101345.38;5123669;23;20005;-77
2022/08/27 00:24:27;;;;;;;9.30;2.95;;;14.40;99.90;;;13.82;100.00;101382.75;5123993;23;20012;-77
2022/08/27 00:26:28;;;;;;;6.38;2.63;;;14.40;99.90;;;13.68;100.00;101359.47;5124105;23;20000;-77
2022/08/27 00:28:31;;;;;;;6.22;2.80;;;14.40;99.90;;;13.69;100.00;101356.69;5124033;23;20075;-77
2022/08/27 00:30:31;;;;;;;6.18;2.58;;;14.40;99.90;;;13.64;100.00;101348.38;5098288;23;20012;-77
2022/08/27 00:32:33;;;;;;;5.55;2.58;;;14.40;99.90;;;13.70;100.00;101357.50;5122482;23;20001;-77
2022/08/27 00:34:34;;;;;;;6.35;2.28;;;14.40;99.90;;;13.71;100.00;101364.47;5098217;23;20008;-77
2022/08/27 00:36:36;;;;;;;9.43;2.50;;;14.40;99.90;;;13.70;100.00;101366.31;5123976;23;20009;-77
2022/08/27 00:38:39;;;;;;;7.68;2.53;;;14.40;99.90;;;13.60;100.00;101343.56;5097938;23;20045;-76
2022/08/27 00:40:41;;;;;;;8.73;2.97;;;14.30;99.90;;;13.67;100.00;101353.38;5097512;23;20069;-77
2022/08/27 00:42:44;;;;;;;4.65;2.75;;;14.40;99.90;;;13.60;100.00;101338.25;5123869;23;20013;-77
2022/08/27 00:44:45;;;;;;;8.98;3.53;;;14.40;99.90;;;13.82;100.00;101372.97;5123946;23;20011;-77
2022/08/27 00:47:04;;;;;;;6.53;2.90;;;14.40;99.90;;;13.78;100.00;101365.50;5124191;23;20051;-77
2022/08/27 00:49:17;;;;;;;8.40;2.80;;;14.40;99.90;;;13.64;100.00;101342.25;5097684;23;20006;-77
2022/08/27 00:51:20;;;;;;;6.78;3.42;;;14.40;99.90;;;13.61;100.00;101338.09;5122230;23;20084;-77
2022/08/27 00:53:28;;;;;;;6.40;2.90;;;14.40;99.90;;;13.69;100.00;101348.72;5098379;23;20013;-77
2022/08/27 00:55:44;;;;;;;7.90;3.05;;;14.40;99.90;;;13.66;100.00;101348.22;5073718;23;20238;-77
2022/08/27 00:58:00;;;;;;;12.98;3.53;;;14.40;99.90;;;13.65;100.00;101341.28;5097426;23;20006;-77
2022/08/27 01:00:07;;;;;;;12.77;3.88;;;14.40;99.90;;;13.76;100.00;101359.53;5099904;23;20010;-77
2022/08/27 01:02:17;;;;;;;10.75;2.90;;;14.40;99.90;;;13.79;100.00;101360.03;5098324;23;20068;-77
2022/08/27 01:04:18;;;;;;;10.45;3.53;;;14.40;99.90;;;13.73;100.00;101354.53;5123646;23;20013;-77
2022/08/27 01:06:22;;;;;;;12.13;3.67;;;14.40;99.90;;;13.64;100.00;101336.94;5123815;23;20001;-77
2022/08/27 01:08:34;;;;;;;7.35;3.17;;;14.40;99.90;;;13.70;100.00;101339.78;5121996;23;20752;-77
2022/08/27 01:10:37;;;;;;;6.45;3.28;;;14.40;99.90;;;13.60;100.00;101325.00;5098092;23;20005;-77
2022/08/27 01:12:39;;;;;;;15.77;3.20;;;14.40;99.90;;;13.59;100.00;101326.81;5097571;23;20374;-77
2022/08/27 01:14:43;;;;;;;6.85;2.58;;;14.30;99.90;;;13.71;100.00;101345.91;5073335;23;20013;-77
2022/08/27 01:16:53;;;;;;;6.82;2.83;;;14.30;99.90;;;13.62;100.00;101342.41;5097711;23;20061;-77
2022/08/27 01:18:56;;;;;;;8.30;2.97;;;14.30;99.90;;;13.73;100.00;101365.16;5097188;23;20089;-77
2022/08/27 01:21:17;;;;;;;9.70;2.95;;;14.30;99.90;;;13.68;100.00;101359.47;5098020;23;20005;-77
2022/08/27 01:23:33;;;;;;;8.13;3.60;;;14.30;99.90;;;13.72;100.00;101363.47;5074201;23;20010;-77
2022/08/27 01:25:35;;;;;;;7.72;3.15;;;14.30;99.90;;;13.60;100.00;101343.56;5123563;23;20001;-77
2022/08/27 01:27:36;;;;;;;6.75;3.42;;;14.30;99.90;;;13.61;100.00;101339.91;5097234;23;20002;-77
2022/08/27 01:29:38;;;;;;;7.78;3.95;;;14.30;99.90;;;13.52;100.00;101319.69;5097538;23;20001;-77
2022/08/27 01:31:39;;;;;;;6.00;3.40;;;14.30;99.90;;;13.56;100.00;101328.97;5123556;23;20015;-77
2022/08/27 01:33:51;;;;;;;11.65;3.40;;;14.30;99.90;;;13.72;100.00;101351.06;5123566;23;20005;-77
2022/08/27 01:35:52;;;;;;;5.15;3.33;;;14.20;99.90;;;13.58;100.00;101332.28;5099538;23;20013;-77
2022/08/27 01:37:54;;;;;;;13.55;3.20;;;14.30;99.90;;;13.52;100.00;101317.03;5097027;23;20016;-77
2022/08/27 01:39:57;;;;;;;9.85;4.00;;;14.20;99.90;;;13.52;100.00;101324.97;5123496;23;20389;-77
2022/08/27 01:42:31;;;;;;;9.18;3.53;;;14.20;99.90;;;13.56;100.00;101332.44;5097116;23;20032;-77
2022/08/27 01:44:56;;;;;;;8.40;2.85;;;14.30;99.90;;;13.62;100.00;101342.41;5122282;23;20350;-77
2022/08/27 01:46:57;;;;;;;10.07;3.20;;;14.20;99.90;;;13.50;100.00;101321.66;5123447;23;20005;-77
2022/08/27 01:48:58;;;;;;;11.05;3.60;;;14.20;99.90;;;13.49;100.00;101320.00;5123413;23;20009;-77
2022/08/27 01:50:58;;;;;;;7.70;3.40;;;14.20;99.90;;;13.51;100.00;101318.00;5123400;23;20557;-77
2022/08/27 01:53:07;;;;;;;7.38;2.80;;;14.20;99.90;;;13.61;100.00;101338.09;5096810;23;20008;-77
2022/08/27 01:55:13;;;;;;;14.23;3.75;;;14.20;99.90;;;13.51;100.00;101316.19;5097727;23;20015;-77
2022/08/27 01:57:15;;;;;;;8.80;2.97;;;14.20;99.90;;;13.44;100.00;101306.41;5097267;23;20013;-76
2022/08/27 01:59:16;;;;;;;8.30;3.55;;;14.20;99.90;;;13.46;100.00;101304.41;5123302;23;20008;-77
2022/08/27 02:01:18;;;;;;;13.32;3.83;;;14.10;99.90;;;13.58;100.00;101324.34;5123373;23;20008;-77
2022/08/27 02:03:19;;;;;;;9.48;4.43;;;14.20;99.90;;;13.46;100.00;101302.59;5097235;23;20014;-77
2022/08/27 02:05:20;;;;;;;8.55;3.97;;;14.20;99.90;;;13.56;100.00;101313.06;5097353;23;20001;-77
2022/08/27 02:07:21;;;;;;;10.25;3.75;;;14.20;99.90;;;13.55;100.00;101308.75;5097037;23;20036;-77
2022/08/27 02:09:24;;;;;;;8.43;3.53;;;14.20;99.90;;;13.45;100.00;101292.16;5097307;23;20005;-77
2022/08/27 02:11:25;;;;;;;8.40;3.95;;;14.20;99.90;;;13.43;100.00;101292.31;5123338;23;20075;-77
2022/08/27 02:13:26;;;;;;;9.82;4.10;;;14.20;99.90;;;13.54;100.00;101310.56;5123360;23;20005;-77
2022/08/27 02:15:28;;;;;;;7.35;4.28;;;14.20;99.90;;;13.55;100.00;101314.06;5072679;23;20021;-77
2022/08/27 02:17:29;;;;;;;8.30;3.97;;;14.20;99.90;;;13.45;100.00;101300.09;5123266;23;20336;-77
2022/08/27 02:19:30;;;;;;;7.38;3.95;;;14.20;99.90;;;13.57;100.00;101315.56;5121851;23;20108;-77
2022/08/27 02:21:31;;;;;;;9.20;3.85;;;14.20;99.90;;;13.40;100.00;101295.28;5122546;23;20492;-77
2022/08/27 02:23:32;;;;;;;9.75;4.22;;;14.20;99.90;;;13.40;100.00;101294.47;5123097;23;20429;-77
2022/08/27 02:25:33;;;;;;;5.40;4.10;;;14.20;99.90;;;13.41;100.00;101293.47;5123221;23;20001;-77
2022/08/27 02:27:35;;;;;;;7.13;3.75;;;14.20;99.90;;;13.39;100.00;101296.28;5121633;23;20009;-77
2022/08/27 02:29:37;;;;;;;8.82;3.33;;;14.10;99.90;;;13.36;100.00;101288.66;5097225;23;20504;-77
2022/08/27 02:31:40;;;;;;;11.32;4.25;;;14.10;99.90;;;13.43;100.00;101297.63;5097481;23;20112;-77
2022/08/27 02:33:42;;;;;;;6.83;3.90;;;14.10;99.90;;;13.38;100.00;101291.97;5123270;23;20055;-77
2022/08/27 02:35:43;;;;;;;12.10;4.55;;;14.10;99.90;;;13.43;100.00;101292.31;5123249;23;20569;-77
2022/08/27 02:37:45;;;;;;;10.30;3.67;;;14.10;99.90;;;13.36;100.00;101288.66;5096843;23;20005;-77
2022/08/27 02:39:46;;;;;;;9.30;3.78;;;14.10;99.90;;;13.33;100.00;101283.66;5097003;23;20021;-77
2022/08/27 02:41:48;;;;;;;6.53;3.63;;;14.10;99.90;;;13.36;100.00;101286.00;5123233;23;20059;-77
2022/08/27 02:43:49;;;;;;;7.97;3.95;;;14.10;99.90;;;13.35;100.00;101284.31;5097024;23;20016;-77
2022/08/27 02:45:50;;;;;;;8.40;3.42;;;14.10;99.90;;;13.30;100.00;101274.22;5123134;23;20392;-77
2022/08/27 02:47:52;;;;;;;10.75;4.18;;;14.00;99.90;;;13.36;100.00;101287.81;5096867;23;20009;-77
2022/08/27 02:49:54;;;;;;;9.15;3.95;;;14.00;99.90;;;13.35;100.00;101286.19;5122786;23;20056;-77
2022/08/27 02:51:56;;;;;;;10.48;4.10;;;14.00;99.90;;;13.42;100.00;101298.59;5122556;23;20005;-77
2022/08/27 02:53:57;;;;;;;11.40;4.43;;;14.00;99.90;;;13.36;100.00;101285.16;5072627;23;20017;-77
2022/08/27 02:55:58;;;;;;;6.40;3.88;;;14.00;99.90;;;13.40;100.00;101292.66;5123070;23;20009;-77
2022/08/27 02:57:59;;;;;;;6.72;4.10;;;14.00;99.90;;;13.29;100.00;101272.56;5072694;23;20379;-77
2022/08/27 03:00:00;;;;;;;10.73;3.80;;;14.00;99.90;;;13.33;100.00;101278.38;5123170;23;20005;-77
2022/08/27 03:02:01;;;;;;;13.20;5.03;;;14.00;99.90;;;13.43;100.00;101289.69;5071344;23;20074;-77
2022/08/27 03:04:03;;;;;;;9.27;4.70;;;14.10;99.90;;;13.34;100.00;101280.03;5093015;23;20022;-77
2022/08/27 03:13:50;;;;;;;;;;;;;;;;;;;;;
2022/08/27 03:18:55;;;;;;;9.00;3.97;;;14.00;99.90;;;13.40;100.00;101297.13;5093211;23;20021;-77
2022/08/27 03:20:56;;;;;;;9.35;4.75;;;14.00;99.90;;;13.20;100.00;101268.22;5122654;23;20012;-77
2022/08/27 03:22:57;;;;;;;9.57;4.82;;;14.00;99.90;;;13.22;100.00;101270.72;5096804;23;20009;-77
2022/08/27 03:24:58;;;;;;;7.32;4.32;;;14.00;99.90;;;13.23;100.00;101270.53;5096561;23;20001;-77
2022/08/27 03:26:58;;;;;;;7.72;4.18;;;14.00;99.90;;;13.18;100.00;101262.25;5122739;23;20013;-77
2022/08/27 03:28:59;;;;;;;10.57;4.80;;;13.90;99.90;;;13.19;100.00;101266.56;5122791;23;20001;-77
2022/08/27 03:31:05;;;;;;;10.15;4.93;;;14.00;99.90;;;13.17;100.00;101255.28;5122846;23;20008;-77
2022/08/27 03:33:07;;;;;;;10.10;4.88;;;14.00;99.90;;;13.30;100.00;101284.81;5072009;23;20014;-77
2022/08/27 03:35:09;;;;;;;16.92;5.05;;;14.00;99.90;;;13.22;100.00;101268.91;5122930;23;20430;-77
2022/08/27 03:37:10;;;;;;;10.23;5.07;;;13.90;99.90;;;13.14;100.00;101260.09;5096546;23;20032;-77
2022/08/27 03:39:11;;;;;;;11.25;4.57;;;13.90;99.90;;;13.16;100.00;101261.59;5123055;23;20021;-77
2022/08/27 03:41:12;;;;;;;8.45;5.00;;;13.90;99.90;;;13.11;100.00;101252.47;5121303;23;20013;-77
2022/08/27 03:43:15;;;;;;;9.63;4.57;;;13.90;99.90;;;13.17;100.00;101263.25;5096659;23;20135;-77
2022/08/27 03:45:16;;;;;;;8.23;5.00;;;13.90;99.90;;;13.12;100.00;101248.81;5122841;23;20037;-77
2022/08/27 03:47:18;;;;;;;10.77;4.60;;;13.90;99.90;;;13.17;100.00;101268.53;5122544;23;20005;-77
2022/08/27 03:49:21;;;;;;;9.98;4.93;;;13.90;99.90;;;13.16;100.00;101250.16;5096367;23;20044;-77
2022/08/27 03:51:22;;;;;;;12.85;5.38;;;13.90;99.90;;;13.20;100.00;101270.88;5071954;23;20034;-77
2022/08/27 03:53:23;;;;;;;9.52;4.70;;;13.90;99.90;;;13.14;100.00;101254.81;5096777;23;20009;-77
2022/08/27 03:55:24;;;;;;;10.45;5.18;;;13.90;99.90;;;13.08;100.00;101253.59;5096410;23;20482;-77
2022/08/27 03:57:25;;;;;;;11.45;4.40;;;13.90;99.90;;;13.17;100.00;101265.88;5122966;23;20319;-77
2022/08/27 03:59:26;;;;;;;16.88;5.15;;;13.90;99.90;;;13.09;100.00;101252.63;5096433;23;20009;-77
2022/08/27 04:01:28;;;;;;;8.52;4.20;;;13.80;99.90;;;13.20;100.00;101272.72;5122465;23;20016;-77
2022/08/27 04:03:29;;;;;;;8.15;4.70;;;13.80;99.90;;;13.08;100.00;101258.91;5122580;23;20464;-77
2022/08/27 04:05:31;;;;;;;10.93;4.55;;;13.80;99.90;;;13.04;100.00;101246.94;5122974;23;20008;-77
2022/08/27 04:07:33;;;;;;;8.50;4.07;;;13.80;99.90;;;13.14;100.00;101263.56;5096467;23;20002;-77
2022/08/27 04:09:33;;;;;;;10.60;4.80;;;13.80;99.90;;;13.06;100.00;101247.59;5123041;23;20365;-77
2022/08/27 04:11:35;;;;;;;12.52;5.28;;;13.80;99.90;;;13.05;100.00;101248.59;5122765;23;20084;-77
2022/08/27 04:13:36;;;;;;;8.93;4.57;;;13.80;99.90;;;13.00;100.00;101240.31;5096662;23;20012;-77
2022/08/27 04:15:43;;;;;;;8.43;5.22;;;13.80;99.90;;;12.96;100.00;101233.66;5096689;23;20100;-77
2022/08/27 04:17:44;;;;;;;10.13;4.40;;;13.80;99.90;;;12.96;100.00;101230.19;5124341;23;20012;-77
2022/08/27 04:19:45;;;;;;;8.00;4.57;;;13.80;99.90;;;13.03;100.00;101241.78;5098106;23;20021;-77
2022/08/27 04:21:46;;;;;;;12.15;5.22;;;13.70;99.90;;;13.03;100.00;101245.28;5122708;23;20457;-77
2022/08/27 04:23:47;;;;;;;8.23;4.20;;;13.70;99.90;;;13.07;100.00;101259.88;5073510;23;20017;-77
2022/08/27 04:25:48;;;;;;;7.47;4.30;;;13.70;99.90;;;12.97;100.00;101243.28;5124369;23;20381;-77
2022/08/27 04:27:49;;;;;;;11.55;5.00;;;13.70;99.90;;;13.05;100.00;101259.19;5097906;23;20005;-77
2022/08/27 04:29:55;;;;;;;12.70;4.90;;;13.70;99.90;;;12.94;100.00;101240.09;5124160;23;20012;-77
2022/08/27 04:31:56;;;;;;;11.63;4.18;;;13.70;99.90;;;12.95;100.00;101244.41;5097826;23;20002;-77
2022/08/27 04:33:57;;;;;;;10.57;4.47;;;13.70;99.90;;;13.00;100.00;101253.53;5097990;23;20013;-77
2022/08/27 04:36:00;;;;;;;14.18;5.18;;;13.70;99.90;;;12.91;100.00;101230.66;5123821;23;20099;-77
2022/08/27 04:38:01;;;;;;;14.77;4.30;;;13.70;99.90;;;13.04;100.00;101259.34;5124158;23;20035;-77
2022/08/27 04:40:03;;;;;;;9.07;4.07;;;13.70;99.90;;;13.04;100.00;101262.00;5098173;23;20059;-77
2022/08/27 04:42:04;;;;;;;8.18;3.92;;;13.60;99.90;;;13.03;100.00;101255.88;5124057;23;20005;-77
2022/08/27 04:44:08;;;;;;;12.38;5.32;;;13.60;99.90;;;13.01;100.00;101255.22;5124097;23;20389;-77
2022/08/27 04:46:09;;;;;;;;;;;13.60;99.90;;;12.83;100.00;101237.75;5123141;23;20012;-77
2022/08/27 04:48:13;;;;;;;10.80;4.45;;;13.60;99.90;;;12.83;100.00;101233.28;5124353;23;19904;-77
2022/08/27 04:50:14;;;;;;;8.25;4.07;;;13.60;99.90;;;12.92;100.00;101244.75;5123976;23;20096;-77
2022/08/27 04:52:15;;;;;;;9.40;4.63;;;13.60;99.90;;;12.74;100.00;101224.47;5123694;23;20024;-77
2022/08/27 04:54:16;;;;;;;8.98;4.40;;;13.60;99.90;;;12.78;100.00;101232.94;5097925;23;20041;-77
2022/08/27 04:56:21;;;;;;;16.70;4.97;;;13.60;99.90;;;12.82;100.00;101244.03;5124052;23;20008;-77
2022/08/27 04:58:24;;;;;;;9.02;3.92;;;13.60;99.90;;;12.83;100.00;101249.16;5122643;23;20008;-77
2022/08/27 05:00:25;;;;;;;12.05;4.45;;;13.60;99.90;;;12.74;100.00;101242.19;5097734;23;20001;-77
2022/08/27 05:02:26;;;;;;;10.00;4.10;;;13.60;99.90;;;12.88;100.00;101265.41;5073513;23;20013;-77
2022/08/27 05:04:29;;;;;;;8.88;4.43;;;13.60;99.90;;;12.76;100.00;101245.47;5097745;23;20076;-77
2022/08/27 05:06:30;;;;;;;8.35;4.07;;;13.50;99.90;;;12.82;100.00;101257.25;5097651;23;20338;-77
2022/08/27 05:08:32;;;;;;;9.55;4.25;;;13.50;99.90;;;12.84;100.00;101261.44;5123846;23;20005;-77
2022/08/27 05:10:47;;;;;;;7.45;4.10;;;13.50;99.90;;;12.76;100.00;101258.72;5073443;23;20041;-77
2022/08/27 05:12:48;;;;;;;11.43;4.68;;;13.50;99.90;;;12.80;100.00;101268.00;5097397;23;20009;-76
2022/08/27 05:14:49;;;;;;;8.30;4.30;;;13.50;99.90;;;12.74;100.00;101255.41;5097680;23;20060;-77
2022/08/27 05:16:50;;;;;;;9.45;4.22;;;13.50;99.90;;;12.80;100.00;101270.66;5123850;23;20429;-77
2022/08/27 05:18:52;;;;;;;9.80;4.28;;;13.50;99.90;;;12.68;100.00;101253.38;5123666;23;20020;-77
2022/08/27 05:20:53;;;;;;;9.43;3.80;;;13.50;99.90;;;12.73;100.00;101264.31;5123446;23;20005;-77
2022/08/27 05:22:54;;;;;;;10.18;4.75;;;13.50;99.90;;;12.69;100.00;101257.72;5097572;23;20017;-77
2022/08/27 05:24:55;;;;;;;9.82;4.05;;;13.50;99.90;;;12.68;100.00;101256.88;5097766;23;20059;-77
2022/08/27 05:26:56;;;;;;;6.93;4.03;;;13.50;99.90;;;12.69;100.00;101268.28;5123579;23;20009;-77
2022/08/27 05:29:01;;;;;;;7.90;4.57;;;13.50;99.90;;;12.69;100.00;101268.28;5097790;23;20005;-77
2022/08/27 05:31:08;;;;;;;13.43;4.15;;;13.50;99.90;;;12.75;100.00;101270.31;5123684;23;20005;-77
2022/08/27 05:33:11;;;;;;;11.43;4.30;;;13.50;99.90;;;12.71;100.00;101266.31;5123633;23;20008;-77
2022/08/27 05:35:12;;;;;;;10.13;4.32;;;13.50;99.90;;;12.65;100.00;101253.72;5097781;23;20006;-77
2022/08/27 05:37:13;;;;;;;7.47;4.03;;;13.50;99.90;;;12.74;100.00;101272.13;5097314;23;20061;-77
2022/08/27 05:39:14;;;;;;;8.70;4.15;;;13.50;99.90;;;12.85;100.00;101284.25;5122112;23;20067;-77
2022/08/27 05:41:19;;;;;;;11.85;4.53;;;13.50;99.90;;;12.74;100.00;101266.84;5123695;23;20015;-77
2022/08/27 05:43:20;;;;;;;7.35;3.80;;;13.50;99.90;;;12.72;100.00;101268.78;5097828;23;20006;-77
2022/08/27 05:45:21;;;;;;;9.57;4.43;;;13.50;99.90;;;12.88;100.00;101294.53;5123906;23;20052;-77
2022/08/27 05:47:22;;;;;;;7.13;4.38;;;13.50;99.90;;;12.85;100.00;101289.53;5097555;23;20009;-77
2022/08/27 05:49:23;;;;;;;12.98;4.38;;;13.50;99.90;;;12.82;100.00;101284.56;5097396;23;20139;-77
2022/08/27 05:51:36;;;;;;;7.35;4.05;;;13.50;99.90;;;12.79;100.00;101269.00;5097258;23;20001;-77
2022/08/27 05:53:38;;;;;;;8.68;4.63;;;13.50;99.90;;;12.94;100.00;101303.66;5097345;23;20013;-77
2022/08/27 05:55:44;;;;;;;6.90;3.83;;;13.60;99.90;;;12.83;100.00;101280.09;5097417;23;20010;-77
2022/08/27 05:57:45;;;;;;;10.48;4.55;;;13.60;99.90;;;12.79;100.00;101274.28;5097085;23;20019;-77
2022/08/27 06:02:05;;;;;;;8.30;4.00;;;13.50;99.90;;;12.78;100.00;101270.81;5101263;23;20098;-77
2022/08/27 06:04:08;;;;;;;6.82;4.38;;;13.60;99.90;;;12.89;100.00;101290.06;5097089;23;20013;-77
2022/08/27 06:06:10;;;;;;;8.43;4.40;;;13.60;99.90;;;12.91;100.00;101294.22;5072724;23;20068;-77
2022/08/27 06:08:11;;;;;;;10.70;4.28;;;13.60;99.90;;;12.88;100.00;101289.22;5097264;23;20081;-77
2022/08/27 06:10:12;;;;;;;8.05;3.88;;;13.60;99.90;;;12.89;100.00;101290.91;5097262;23;20013;-77
2022/08/27 06:12:13;;;;;;;6.82;3.55;;;13.60;99.90;;;12.80;100.00;101278.59;5122076;23;20055;-77
2022/08/27 06:14:14;;;;;;;7.32;3.88;;;13.70;99.90;;;12.92;100.00;101297.69;5123343;23;20005;-76
2022/08/27 06:16:19;;;;;;;10.63;4.00;;;13.70;99.90;;;12.87;100.00;101284.94;5123798;23;20419;-77
2022/08/27 06:18:20;;;;;;;10.63;4.07;;;13.70;99.90;;;13.08;100.00;101305.78;5123063;23;20020;-76
2022/08/27 06:20:22;;;;;;;10.18;3.95;;;13.70;99.90;;;12.96;100.00;101280.53;5097197;23;20009;-77
2022/08/27 06:22:24;;;;;;;5.00;3.28;;;13.80;99.90;;;13.01;100.00;101284.34;5096855;23;20012;-77
2022/08/27 06:24:25;;;;;;;6.43;3.85;;;13.80;99.90;;;13.08;100.00;101288.03;5097191;23;20373;-77
2022/08/27 06:26:26;;;;;;;7.20;3.50;;;13.80;99.90;;;13.06;100.00;101287.34;5097011;23;20006;-77
2022/08/27 06:28:28;;;;;;;5.75;3.50;;;13.90;99.90;;;13.12;100.00;101284.09;5097093;23;20006;-77
2022/08/27 06:30:29;;;;;;;6.97;3.50;;;13.90;99.90;;;13.16;100.00;101285.44;5122882;23;20005;-77
2022/08/27 06:32:30;;;;;;;6.22;3.50;;;13.90;99.90;;;13.20;100.00;101292.06;5097212;23;20012;-77
2022/08/27 06:34:32;;;;;;;7.43;3.72;;;13.90;99.90;;;13.18;100.00;101286.09;5123145;23;20429;-77
2022/08/27 06:36:38;;;;;;;8.90;3.45;;;14.00;99.90;;;13.38;100.00;101307.06;5121692;23;20005;-77
2022/08/27 06:38:41;;;;;;;10.38;3.58;;;14.00;99.90;;;13.25;100.00;101279.19;5122973;23;20009;-77
2022/08/27 06:40:42;;;;;;;8.50;3.58;;;14.00;99.90;;;13.41;100.00;101306.72;5097028;23;20009;-77
2022/08/27 06:42:43;;;;;;;8.80;4.05;;;14.10;99.90;;;13.32;100.00;101278.53;5071930;23;20010;-77
2022/08/27 06:44:44;;;;;;;8.98;3.08;;;14.10;99.90;;;13.39;100.00;101279.53;5123089;23;20008;-77
2022/08/27 06:46:45;;;;;;;6.90;3.33;;;14.10;99.90;;;13.39;100.00;101276.88;5122059;23;20504;-77
2022/08/27 06:48:49;;;;;;;6.30;3.03;;;14.20;99.90;;;13.37;100.00;101276.22;5123018;23;20329;-77
2022/08/27 06:50:50;;;;;;;7.78;3.50;;;14.20;99.90;;;13.45;100.00;101281.53;5096717;23;20346;-77
2022/08/27 06:52:51;;;;;;;7.18;3.25;;;14.20;99.90;;;13.49;100.00;101283.72;5123060;23;20016;-77
2022/08/27 06:54:52;;;;;;;8.73;3.15;;;14.30;99.90;;;13.54;100.00;101275.28;5123363;23;20005;-77
2022/08/27 06:56:57;;;;;;;7.32;3.20;;;14.30;99.90;;;13.73;100.00;101298.88;5097170;23;20002;-77
2022/08/27 06:59:02;;;;;;;7.90;3.13;;;14.40;99.90;;;13.64;100.00;101276.81;5123402;23;20005;-77
2022/08/27 07:01:16;;;;;;;9.45;2.70;;;14.40;99.90;;;13.70;100.00;101276.16;5097112;23;20009;-77
2022/08/27 07:03:17;;;;;;;5.90;3.28;;;14.50;99.90;;;13.74;100.00;101274.00;5072194;23;20010;-77
2022/08/27 07:05:18;;;;;;;6.57;2.63;;;14.50;99.90;;;13.89;100.00;101296.22;5096979;23;20055;-77
2022/08/27 07:07:19;;;;;;;3.97;2.50;;;14.60;99.90;;;13.84;100.00;101274.69;5071378;23;20014;-78
2022/08/27 07:09:20;;;;;;;6.43;2.35;;;14.60;99.90;;;13.90;100.00;101281.13;5122817;23;20027;-78
2022/08/27 07:11:21;;;;;;;4.78;2.85;;;14.70;99.90;;;14.02;100.00;101287.78;5123004;23;20060;-78
2022/08/27 07:13:22;;;;;;;6.65;3.30;;;14.70;99.90;;;13.98;100.00;101279.31;5097058;23;20010;-78
2022/08/27 07:15:24;;;;;;;8.55;3.55;;;14.80;99.90;;;14.13;100.00;101296.25;5096784;23;20009;-78
2022/08/27 07:17:25;;;;;;;5.07;3.30;;;14.80;99.90;;;14.11;100.00;101286.78;5123000;23;20381;-78
2022/08/27 07:19:27;;;;;;;7.20;2.78;;;14.90;99.90;;;14.09;100.00;101281.66;5122847;23;20017;-78
2022/08/27 07:21:28;;;;;;;6.32;2.63;;;14.90;99.90;;;14.19;100.00;101286.78;5122721;23;20005;-78
2022/08/27 07:23:31;;;;;;;7.68;3.03;;;15.00;99.90;;;14.26;100.00;101285.97;5123100;23;20009;-78
2022/08/27 07:25:32;;;;;;;6.57;3.28;;;15.10;99.90;;;14.43;100.00;101305.38;5096903;23;20029;-77
2022/08/27 07:27:33;;;;;;;9.00;3.78;;;15.10;99.90;;;14.48;100.00;101291.63;5122781;23;20001;-77
2022/08/27 07:29:34;;;;;;;7.65;2.78;;;15.20;99.90;;;14.59;100.00;101293.94;5096886;23;20012;-76
2022/08/27 07:31:36;;;;;;;5.68;2.63;;;15.30;99.90;;;14.51;100.00;101275.38;5121095;23;20008;-76
2022/08/27 07:33:38;;;;;;;5.63;2.67;;;15.40;99.90;;;14.74;100.00;101310.84;5122801;23;20032;-77
2022/08/27 07:35:40;;;;;;;8.02;2.13;;;15.40;99.90;;;14.68;100.00;101284.94;5072615;23;20438;-78
2022/08/27 07:37:41;;;;;;;7.25;2.70;;;15.50;99.90;;;14.70;100.00;101280.28;5122670;23;20005;-78
2022/08/27 07:39:42;;;;;;;5.88;2.33;;;15.50;99.90;;;14.80;100.00;101292.41;5122833;23;20005;-78
2022/08/27 07:46:24;;;;;;;5.50;2.65;;;15.70;99.90;;;15.15;100.00;101317.69;5122816;23;20398;-78
2022/08/27 07:48:25;;;;;;;6.15;2.78;;;15.80;99.90;;;15.08;100.00;101279.53;5096677;23;20001;-75
2022/08/27 07:50:26;;;;;;;8.32;3.45;;;15.80;99.90;;;15.26;100.00;101301.34;5122039;23;20048;-78
2022/08/27 07:52:27;;;;;;;5.75;3.10;;;15.90;99.90;;;15.34;100.00;101295.19;5124245;23;20381;-78
2022/08/27 07:54:28;;;;;;;7.43;3.08;;;16.00;99.90;;;15.32;100.00;101282.06;5124443;23;20005;-79
2022/08/27 07:56:29;;;;;;;6.93;2.80;;;16.10;99.90;;;15.57;100.00;101305.91;5119894;23;20020;-77
2022/08/27 07:58:30;;;;;;;7.00;3.22;;;16.20;99.90;;;15.66;100.00;101315.50;5124242;23;20013;-78
2022/08/27 08:00:32;;;;;;;6.60;3.03;;;16.30;99.90;;;15.56;100.00;101283.78;5123494;23;20009;-78
2022/08/27 08:02:33;;;;;;;6.38;2.50;;;16.30;99.90;;;15.64;100.00;101280.28;5097641;23;20006;-78
2022/08/27 08:04:34;;;;;;;4.45;2.50;;;16.40;99.90;;;15.84;100.00;101306.25;5097136;23;20013;-78
2022/08/27 08:06:38;;;;;;;5.13;2.30;;;16.50;99.90;;;15.86;100.00;101290.13;5097295;23;20323;-78
2022/08/27 08:08:39;;;;;;;5.95;2.60;;;16.60;99.90;;;15.86;100.00;101285.59;5096304;23;20417;-80
2022/08/27 08:10:42;;;;;;;6.35;3.17;;;16.70;99.90;;;15.97;100.00;101293.19;5123108;23;20001;-77
2022/08/27 08:12:42;;;;;;;7.63;2.47;;;16.80;99.90;;;16.07;100.00;101298.25;5096262;23;20005;-78
2022/08/27 08:14:44;;;;;;;11.25;3.17;;;16.80;99.90;;;16.15;100.00;101297.38;5123435;23;20059;-78
2022/08/27 08:16:45;;;;;;;6.65;3.25;;;16.90;99.90;;;16.22;100.00;101291.13;5121976;23;20009;-78
2022/08/27 08:18:46;;;;;;;4.30;2.22;;;17.00;99.90;;;16.29;100.00;101302.75;5097447;23;20020;-78
2022/08/27 08:20:47;;;;;;;6.32;3.25;;;17.10;99.90;;;16.35;100.00;101291.38;5120906;23;20004;-78
2022/08/27 08:22:49;;;;;;;5.50;2.20;;;17.10;99.90;;;16.52;100.00;101305.34;5122132;23;20012;-78
2022/08/27 08:24:50;;;;;;;6.90;2.22;;;17.20;99.90;;;16.61;100.00;101306.16;5123482;23;20005;-78
2022/08/27 08:26:51;;;;;;;5.53;2.33;;;17.30;99.90;;;16.73;100.00;101296.69;5097537;23;20017;-78
2022/08/27 08:28:52;;;;;;;5.68;2.25;;;17.40;99.90;;;16.78;100.00;101294.31;5097473;23;20434;-78
2022/08/27 08:30:53;;;;;;;4.63;2.47;;;17.50;99.90;;;16.85;100.00;101288.06;5121737;23;20005;-78
2022/08/27 08:32:54;;;;;;;6.65;2.42;;;17.60;99.90;;;16.91;100.00;101292.66;5072801;23;20006;-78
2022/08/27 08:34:55;;;;;;;6.38;2.08;;;17.60;99.90;;;16.91;100.00;101281.16;5097199;23;20002;-79
2022/08/27 08:36:56;;;;;;;7.45;2.25;;;17.70;99.90;;;17.05;100.00;101293.69;5123097;23;20164;-78
2022/08/27 08:38:58;;;;;;;7.40;2.13;;;17.80;99.90;;;17.09;100.00;101289.63;5123417;23;20005;-78
2022/08/27 08:40:59;;;;;;;6.18;2.33;;;17.80;99.90;;;17.23;100.00;101291.47;5097382;23;20379;-78